createdAt,value
2019-02-25T00:00:29.923Z,20.73
2019-02-25T00:05:31.964Z,20.63
2019-02-25T00:10:34.998Z,20.03
2019-02-25T00:15:37.191Z,20.07
2019-02-25T00:20:41.342Z,20.90
2019-02-25T00:25:43.635Z,20.70
2019-02-25T00:30:48.191Z,21.80
2019-02-25T00:35:53.255Z,21.60
2019-02-25T00:40:55.653Z,20.83
2019-02-25T00:45:58.748Z,20.33
2019-02-25T00:51:00.765Z,19.73
2019-02-25T00:56:09.947Z,20.87
2019-02-25T01:01:12.215Z,21.50
2019-02-25T01:06:14.501Z,21.23
2019-02-25T01:11:16.611Z,20.30
2019-02-25T01:16:18.775Z,20.40
2019-02-25T01:21:21.025Z,19.23
2019-02-25T01:26:23.449Z,19.83
2019-02-25T01:31:27.656Z,19.00
2019-02-25T01:36:29.804Z,20.03
2019-02-25T01:41:31.852Z,19.10
2019-02-25T01:46:34.040Z,19.13
2019-02-25T01:51:36.057Z,18.27
2019-02-25T01:56:38.359Z,17.47
2019-02-25T02:01:40.454Z,18.87
2019-02-25T02:06:42.576Z,17.30
2019-02-25T02:11:44.595Z,16.30
2019-02-25T02:16:46.602Z,17.90
2019-02-25T02:21:48.644Z,17.63
2019-02-25T02:26:53.271Z,15.67
2019-02-25T02:31:55.279Z,14.83
2019-02-25T02:36:58.758Z,15.80
2019-02-25T02:42:19.779Z,17.43
2019-02-25T02:48:03.291Z,17.47
2019-02-25T02:53:08.276Z,17.33
2019-02-25T02:58:10.607Z,18.13
2019-02-25T03:03:12.732Z,17.47
2019-02-25T03:08:14.736Z,17.63
2019-02-25T03:13:18.137Z,15.93
2019-02-25T03:18:20.172Z,17.60
2019-02-25T03:23:22.161Z,16.10
2019-02-25T03:28:25.623Z,16.50
2019-02-25T03:33:27.634Z,16.30
2019-02-25T03:38:29.645Z,16.30
2019-02-25T03:43:34.535Z,15.70
2019-02-25T03:48:36.560Z,15.03
2019-02-25T03:53:38.743Z,15.20
2019-02-25T03:58:40.741Z,16.50
2019-02-25T04:03:42.778Z,16.20
2019-02-25T04:08:44.848Z,15.60
2019-02-25T04:13:49.752Z,14.93
2019-02-25T04:18:51.830Z,15.17
2019-02-25T04:23:53.970Z,15.27
2019-02-25T04:29:01.069Z,17.17
2019-02-25T04:34:03.160Z,16.30
2019-02-25T04:39:05.466Z,15.43
2019-02-25T04:44:07.504Z,14.97
2019-02-25T04:49:09.519Z,15.63
2019-02-25T04:54:11.558Z,16.00
2019-02-25T04:59:13.546Z,12.87
2019-02-25T05:04:15.559Z,14.57
2019-02-25T05:09:17.638Z,14.07
2019-02-25T05:14:20.376Z,13.70
2019-02-25T05:19:22.383Z,11.37
2019-02-25T05:24:24.528Z,11.00
2019-02-25T05:29:30.794Z,11.47
2019-02-25T05:34:35.900Z,11.27
2019-02-25T05:39:42.920Z,11.57
2019-02-25T05:44:45.097Z,12.23
2019-02-25T05:49:47.117Z,11.87
2019-02-25T05:54:49.378Z,12.30
2019-02-25T05:59:51.417Z,11.47
2019-02-25T06:04:53.435Z,11.17
2019-02-25T06:09:58.083Z,12.63
2019-02-25T06:15:00.343Z,12.27
2019-02-25T06:20:02.605Z,11.87
2019-02-25T06:25:05.693Z,12.93
2019-02-25T06:30:10.344Z,13.17
2019-02-25T06:35:13.779Z,13.07
2019-02-25T06:40:16.194Z,13.27
2019-02-25T06:45:22.971Z,13.40
2019-02-25T06:50:24.959Z,13.47
2019-02-25T06:55:29.322Z,13.20
2019-02-25T07:00:32.978Z,13.23
2019-02-25T07:06:09.632Z,13.30
2019-02-25T07:11:21.905Z,13.23
2019-02-25T07:16:44.813Z,13.27
2019-02-25T07:21:55.922Z,12.90
2019-02-25T07:27:29.708Z,13.97
2019-02-25T07:33:09.940Z,14.13
2019-02-25T07:38:22.527Z,14.30
2019-02-25T07:43:51.303Z,15.03
2019-02-25T07:49:12.790Z,14.47
2019-02-25T07:54:30.723Z,14.93
2019-02-25T07:59:52.651Z,15.43
2019-02-25T08:05:17.023Z,15.57
2019-02-25T08:10:25.122Z,14.73
2019-02-25T08:15:52.665Z,14.13
2019-02-25T08:21:19.131Z,14.40
2019-02-25T08:26:47.042Z,14.57
2019-02-25T08:32:17.699Z,15.17
2019-02-25T08:38:16.545Z,14.90
2019-02-25T08:43:28.550Z,13.60
2019-02-25T08:48:41.693Z,14.13
2019-02-25T08:53:43.884Z,13.33
2019-02-25T08:58:45.896Z,12.67
2019-02-25T09:03:48.133Z,12.90
2019-02-25T09:08:51.684Z,12.17
2019-02-25T09:13:56.686Z,10.67
2019-02-25T09:18:58.656Z,9.80
2019-02-25T09:24:00.749Z,25.67
2019-02-25T09:29:08.004Z,13.47
2019-02-25T09:34:16.932Z,10.67
2019-02-25T09:39:20.843Z,10.87
2019-02-25T09:44:25.018Z,10.83
2019-02-25T09:49:27.023Z,10.13
2019-02-25T09:54:31.514Z,10.07
2019-02-25T09:59:34.423Z,10.10
2019-02-25T10:04:39.049Z,9.13
2019-02-25T10:09:43.890Z,9.00
2019-02-25T10:14:49.594Z,8.53
2019-02-25T10:19:52.262Z,8.20
2019-02-25T10:24:54.279Z,8.83
2019-02-25T10:29:56.288Z,9.13
2019-02-25T10:35:01.109Z,9.30
2019-02-25T10:40:04.128Z,8.37
2019-02-25T10:45:13.511Z,7.83
2019-02-25T10:50:18.578Z,7.73
2019-02-25T10:55:28.447Z,7.30
2019-02-25T11:00:35.284Z,7.93
2019-02-25T11:05:37.733Z,8.17
2019-02-25T11:10:44.112Z,7.17
2019-02-25T11:15:49.249Z,7.43
2019-02-25T11:20:51.411Z,7.60
2019-02-25T11:25:56.279Z,7.37
2019-02-25T11:30:58.399Z,7.00
2019-02-25T11:36:00.424Z,6.70
2019-02-25T11:41:04.206Z,6.43
2019-02-25T11:46:08.356Z,6.77
2019-02-25T11:51:10.382Z,6.53
2019-02-25T11:56:14.151Z,5.77
2019-02-25T12:01:16.477Z,5.30
2019-02-25T12:06:20.987Z,5.20
2019-02-25T12:11:25.196Z,5.17
2019-02-25T12:16:27.403Z,4.93
2019-02-25T12:21:30.551Z,4.30
2019-02-25T12:26:35.595Z,4.60
2019-02-25T12:31:37.657Z,4.73
2019-02-25T12:36:39.852Z,4.70
2019-02-25T12:41:42.891Z,5.03
2019-02-25T12:46:46.064Z,4.50
2019-02-25T12:51:48.093Z,4.23
2019-02-25T12:56:50.338Z,4.63
2019-02-25T13:01:52.399Z,4.70
2019-02-25T13:06:54.443Z,4.90
2019-02-25T13:11:56.552Z,5.13
2019-02-25T13:16:58.578Z,5.50
2019-02-25T13:22:00.623Z,5.73
2019-02-25T13:27:03.154Z,4.63
2019-02-25T13:32:06.343Z,4.70
2019-02-25T13:37:08.363Z,4.20
2019-02-25T13:42:10.508Z,4.37
2019-02-25T13:47:15.092Z,4.60
2019-02-25T13:52:17.273Z,4.83
2019-02-25T13:57:19.286Z,4.60
2019-02-25T14:02:21.527Z,4.80
2019-02-25T14:07:23.563Z,4.40
2019-02-25T14:12:25.808Z,4.47
2019-02-25T14:17:27.923Z,3.77
2019-02-25T14:22:31.305Z,3.90
2019-02-25T14:27:33.605Z,3.90
2019-02-25T14:32:38.806Z,3.70
2019-02-25T14:37:40.912Z,3.20
2019-02-25T14:42:46.882Z,3.73
2019-02-25T14:47:49.534Z,4.57
2019-02-25T14:52:54.341Z,4.70
2019-02-25T14:58:00.001Z,4.87
2019-02-25T15:03:04.332Z,5.27
2019-02-25T15:08:07.584Z,5.17
2019-02-25T15:13:10.554Z,5.10
2019-02-25T15:18:15.279Z,7.80
2019-02-25T15:23:22.561Z,9.20
2019-02-25T15:28:23.360Z,9.63
2019-02-25T15:33:25.881Z,10.30
2019-02-25T15:38:29.082Z,10.40
2019-02-25T15:43:32.174Z,10.77
2019-02-25T15:48:35.042Z,9.17
2019-02-25T15:53:38.290Z,10.03
2019-02-25T15:58:40.434Z,9.70
2019-02-25T16:03:43.053Z,9.27
2019-02-25T16:08:49.843Z,9.27
2019-02-25T16:13:53.502Z,8.70
2019-02-25T16:18:57.622Z,8.77
2019-02-25T16:24:11.671Z,8.90
2019-02-25T16:29:13.342Z,9.87
2019-02-25T16:34:16.381Z,9.83
2019-02-25T16:39:19.719Z,9.63
2019-02-25T16:44:22.131Z,9.93
2019-02-25T16:49:24.235Z,9.43
2019-02-25T16:54:29.733Z,9.33
2019-02-25T16:59:31.971Z,9.93
2019-02-25T17:04:34.329Z,9.57
2019-02-25T17:09:38.791Z,9.27
2019-02-25T17:14:41.243Z,9.63
2019-02-25T17:19:43.316Z,10.27
2019-02-25T17:24:45.632Z,10.23
2019-02-25T17:29:49.115Z,11.43
2019-02-25T17:34:52.658Z,9.43
2019-02-25T17:39:58.472Z,10.03
2019-02-25T17:45:02.560Z,10.10
2019-02-25T17:50:06.422Z,9.97
2019-02-25T17:55:12.798Z,10.47
2019-02-25T18:00:20.400Z,10.50
2019-02-25T18:05:22.642Z,10.70
2019-02-25T18:10:25.625Z,12.68
2019-02-25T18:15:31.106Z,17.60
2019-02-25T18:20:38.909Z,14.87
2019-02-25T18:25:41.414Z,13.98
2019-02-25T18:30:46.683Z,12.40
2019-02-25T18:35:53.879Z,13.33
2019-02-25T18:40:58.725Z,13.47
2019-02-25T18:46:04.813Z,20.97
2019-02-25T18:51:09.337Z,16.30
2019-02-25T19:01:36.285Z,13.87
2019-02-25T19:06:41.905Z,13.30
2019-02-25T19:11:46.929Z,13.30
2019-02-25T19:16:50.287Z,14.03
2019-02-25T19:21:56.179Z,13.73
2019-02-25T19:27:04.338Z,13.80
2019-02-25T19:32:04.953Z,13.53
2019-02-25T19:37:10.403Z,14.43
2019-02-25T19:42:18.174Z,15.07
2019-02-25T19:47:22.948Z,14.43
2019-02-25T19:52:30.720Z,15.87
2019-02-25T19:57:33.917Z,16.00
2019-02-25T20:02:37.000Z,14.87
2019-02-25T20:07:39.743Z,15.60
2019-02-25T20:12:41.858Z,16.40
2019-02-25T20:17:48.820Z,16.70
2019-02-25T20:22:52.902Z,16.40
2019-02-25T20:27:59.840Z,17.13
2019-02-25T20:33:06.347Z,17.17
2019-02-25T20:38:09.654Z,18.47
2019-02-25T20:43:17.120Z,17.97
2019-02-25T20:48:18.400Z,18.17
2019-02-25T20:53:20.751Z,18.90
2019-02-25T20:58:24.729Z,21.77
2019-02-25T21:03:28.132Z,18.67
2019-02-25T21:08:32.516Z,18.57
2019-02-25T21:13:35.900Z,18.53
2019-02-25T21:18:39.234Z,20.10
2019-02-25T21:23:41.600Z,19.03
2019-02-25T21:28:45.111Z,19.00
2019-02-25T21:33:49.850Z,19.47
2019-02-25T21:38:54.388Z,19.57
2019-02-25T21:44:03.715Z,17.83
2019-02-25T21:49:06.774Z,19.00
2019-02-25T21:54:10.072Z,17.73
2019-02-25T21:59:12.770Z,18.97
2019-02-25T22:04:17.985Z,18.10
2019-02-25T22:09:35.478Z,17.70
2019-02-25T22:14:26.648Z,18.43
2019-02-25T22:19:29.823Z,17.80
2019-02-25T22:24:38.775Z,18.83
2019-02-25T22:29:42.769Z,18.50
2019-02-25T22:34:49.505Z,19.00
2019-02-25T22:39:55.932Z,19.63
2019-02-25T22:44:58.158Z,18.60
2019-02-25T22:50:06.496Z,19.10
2019-02-25T22:55:10.122Z,18.27
2019-02-25T23:01:01.571Z,18.20
2019-02-25T23:06:09.262Z,18.07
2019-02-25T23:11:14.281Z,18.03
2019-02-25T23:16:18.691Z,17.70
2019-02-25T23:21:23.926Z,18.20
2019-02-25T23:26:24.324Z,18.97
2019-02-25T23:31:29.934Z,18.50
2019-02-25T23:36:34.646Z,18.27
2019-02-25T23:41:38.982Z,18.53
2019-02-25T23:46:42.222Z,19.40
2019-02-25T23:51:45.911Z,18.97
2019-02-25T23:56:50.248Z,19.03
